logo
Search for airport 
image banner adimage banner adimage banner ad
image banner ad

EDON - Neuhardenberg

Located in Neuhardenberg, Germany

ICAO - EDON, IATA -

Data provided by Airmate  

General information

Coordinates: N52°36'47" E14°14'33"
Elevation is 35 feet MSL.
Magnetic variation is 4.0000° East
View others Airports in Brandenburg

Operational data

Special qualification required
Current time UTC:
Current local time:
Weather at : EDDB - Berlin Brandenburg ( 57 km )
METAR: EDDB 220320Z AUTO 23009KT 9999 BKN016 18/17 Q1008 RESHRA NOSIG
View NOTAMs / SUP AIP / TFR affecting this airport [VIEW]
Communications frequencies: [VIEW]

Runways:

RWY identifierQFULength (ft)Width (ft)SurfaceLDA (ft)
0884°7874163CONC7874
26264°7874163CONC7874

Airport contact information

Address: Neuhardenberg Germany

Satellite view of EDON